Kandiyohi, MN (56251)

1:10 PM CST on February 09, 2016 (GMT -0600)
Willmar | | Change Station
CLOSE
Current Station
Personal Weather Station
Location: Willmar, MN
Elevation: 1188 ft
Nearby Weather Stations

Elev 1188 ft 45.15 °N, 95.00 °W | Updated 5 minutes ago

Clear
Clear
14.8 °F
Feels Like 0 °F
N
15.0
Wind Variable Wind from North
Gusts 21.0 mph

Today
High -- | Low -- °F
--% Chance of Precip.
Yesterday
High -- | Low -- °F
Precip. -- in
Pressure 30.19 in
Visibility 10.0 miles
Clouds Clear
Windchill 0 °F
Dew Point 6 °F
Humidity 67%
Rainfall 0.00 in
Snow Depth Not available.
7:30 AM 5:38 PM
New Moon, 2% visible
METAR KBDH 091855Z AUTO 32015KT 10SM CLR M09/M13 A3019 RMK AO2
Pressure 30.19 in
Visibility 10.0 miles
Clouds Clear
Windchill 0 °F
Dew Point 6 °F
Humidity 67%
Rainfall 0.00 in
Snow Depth Not available.
7:30 AM 5:38 PM
New Moon, 2% visible
METAR KBDH 091855Z AUTO 32015KT 10SM CLR M09/M13 A3019 RMK AO2

10-Day Weather Forecast

Almanac

Astronomy

Feb. 09, 2016 Rise Set
Actual Time
Civil Twilight
Nautical Twilight
Astronomical Twilight
Moon
Length of Visible Light
Length of Day
Tomorrow will be .
, % of the Moon is Illuminated

Today's Extremes

State Highs State Lows

Community

WunderPhotos

Upload Photos

1,891,664 photos uploaded!

WunderBlog® & News

Nearby

Air Quality

  Air Quality AQ Index Pollutant
Not available.

Snow Depth

Station Depth Elevation

Earthquake Activity

City Distance Mag. Time & Date
Minimum magnitude displayed is 2.5.

Coastal Water Temperatures

Place Temperature

Stations

Nearby Weather Stations

Station Location Temp. Windchill Dew Point Humidity Wind Precip. Elev Updated Type
                   

Watches & Warnings

There are currently no watches in effect.